sensor_id;sensor_type;location;lat;lon;timestamp;pressure;altitude;pressure_sealevel;temperature;humidity
9784;BME280;4931;44.874;-1.092;2023-04-06T00:00:54;101845.47;;;9.32;100.00
9784;BME280;4931;44.874;-1.092;2023-04-06T00:03:20;101838.09;;;9.33;100.00
9784;BME280;4931;44.874;-1.092;2023-04-06T00:05:46;101828.75;;;9.17;100.00
9784;BME280;4931;44.874;-1.092;2023-04-06T00:08:12;101817.94;;;9.10;100.00
9784;BME280;4931;44.874;-1.092;2023-04-06T00:10:38;101811.63;;;9.09;100.00
9784;BME280;4931;44.874;-1.092;2023-04-06T00:13:04;101818.94;;;9.04;100.00
9784;BME280;4931;44.874;-1.092;2023-04-06T00:15:30;101821.41;;;9.05;100.00
9784;BME280;4931;44.874;-1.092;2023-04-06T00:17:56;101827.47;;;9.07;100.00
9784;BME280;4931;44.874;-1.092;2023-04-06T00:20:21;101827.56;;;9.12;100.00
9784;BME280;4931;44.874;-1.092;2023-04-06T00:22:47;101818.88;;;9.16;100.00
9784;BME280;4931;44.874;-1.092;2023-04-06T00:25:12;101807.13;;;9.03;100.00
9784;BME280;4931;44.874;-1.092;2023-04-06T00:27:40;101809.88;;;9.03;100.00
9784;BME280;4931;44.874;-1.092;2023-04-06T00:30:07;101801.91;;;9.02;100.00
9784;BME280;4931;44.874;-1.092;2023-04-06T00:32:34;101804.13;;;9.05;100.00
9784;BME280;4931;44.874;-1.092;2023-04-06T00:35:01;101810.47;;;9.05;100.00
9784;BME280;4931;44.874;-1.092;2023-04-06T00:37:27;101814.88;;;9.06;100.00
9784;BME280;4931;44.874;-1.092;2023-04-06T00:39:52;101805.97;;;8.99;100.00
9784;BME280;4931;44.874;-1.092;2023-04-06T00:42:18;101808.44;;;9.01;100.00
9784;BME280;4931;44.874;-1.092;2023-04-06T00:44:57;101799.41;;;9.00;100.00
9784;BME280;4931;44.874;-1.092;2023-04-06T00:47:23;101799.41;;;9.00;100.00
9784;BME280;4931;44.874;-1.092;2023-04-06T00:49:51;101797.84;;;9.04;100.00
9784;BME280;4931;44.874;-1.092;2023-04-06T00:52:17;101801.19;;;9.06;100.00
9784;BME280;4931;44.874;-1.092;2023-04-06T00:54:43;101798.66;;;9.05;100.00
9784;BME280;4931;44.874;-1.092;2023-04-06T00:57:09;101789.72;;;9.09;100.00
9784;BME280;4931;44.874;-1.092;2023-04-06T00:59:35;101789.88;;;9.03;100.00
9784;BME280;4931;44.874;-1.092;2023-04-06T01:02:01;101792.38;;;9.04;100.00
9784;BME280;4931;44.874;-1.092;2023-04-06T01:04:26;101782.59;;;9.08;100.00
9784;BME280;4931;44.874;-1.092;2023-04-06T01:06:52;101795.34;;;9.03;100.00
9784;BME280;4931;44.874;-1.092;2023-04-06T01:09:18;101794.91;;;8.94;100.00
9784;BME280;4931;44.874;-1.092;2023-04-06T01:11:44;101788.16;;;8.85;100.00
9784;BME280;4931;44.874;-1.092;2023-04-06T01:14:09;101785.34;;;8.68;100.00
9784;BME280;4931;44.874;-1.092;2023-04-06T01:16:35;101771.34;;;8.52;100.00
9784;BME280;4931;44.874;-1.092;2023-04-06T01:19:04;101767.31;;;8.43;100.00
9784;BME280;4931;44.874;-1.092;2023-04-06T01:21:31;101768.16;;;8.43;100.00
9784;BME280;4931;44.874;-1.092;2023-04-06T01:23:57;101769.22;;;8.42;100.00
9784;BME280;4931;44.874;-1.092;2023-04-06T01:26:22;101764.94;;;8.46;100.00
9784;BME280;4931;44.874;-1.092;2023-04-06T01:28:48;101757.81;;;8.45;100.00
9784;BME280;4931;44.874;-1.092;2023-04-06T01:31:13;101748.06;;;8.50;100.00
9784;BME280;4931;44.874;-1.092;2023-04-06T01:33:39;101736.66;;;8.53;100.00
9784;BME280;4931;44.874;-1.092;2023-04-06T01:36:05;101739.28;;;8.47;100.00
9784;BME280;4931;44.874;-1.092;2023-04-06T01:38:31;101741.16;;;8.35;100.00
9784;BME280;4931;44.874;-1.092;2023-04-06T01:40:56;101737.03;;;8.33;100.00
9784;BME280;4931;44.874;-1.092;2023-04-06T01:43:22;101736.28;;;8.49;100.00
9784;BME280;4931;44.874;-1.092;2023-04-06T01:45:48;101746.75;;;8.52;100.00
9784;BME280;4931;44.874;-1.092;2023-04-06T01:48:13;101735.81;;;8.52;100.00
9784;BME280;4931;44.874;-1.092;2023-04-06T01:50:39;101730.69;;;8.56;100.00
9784;BME280;4931;44.874;-1.092;2023-04-06T01:53:04;101722.47;;;8.56;100.00
9784;BME280;4931;44.874;-1.092;2023-04-06T01:55:30;101714.97;;;8.63;100.00
9784;BME280;4931;44.874;-1.092;2023-04-06T01:57:55;101724.25;;;8.62;100.00
9784;BME280;4931;44.874;-1.092;2023-04-06T02:00:21;101733.72;;;8.71;100.00
9784;BME280;4931;44.874;-1.092;2023-04-06T02:02:46;101733.72;;;8.71;100.00
9784;BME280;4931;44.874;-1.092;2023-04-06T02:05:12;101752.50;;;8.79;100.00
9784;BME280;4931;44.874;-1.092;2023-04-06T02:07:37;101751.91;;;8.77;100.00
9784;BME280;4931;44.874;-1.092;2023-04-06T02:10:03;101750.81;;;8.78;100.00
9784;BME280;4931;44.874;-1.092;2023-04-06T02:12:29;101742.03;;;8.76;100.00
9784;BME280;4931;44.874;-1.092;2023-04-06T02:14:54;101746.31;;;8.84;100.00
9784;BME280;4931;44.874;-1.092;2023-04-06T02:17:20;101741.53;;;8.79;100.00
9784;BME280;4931;44.874;-1.092;2023-04-06T02:19:45;101739.41;;;8.82;100.00
9784;BME280;4931;44.874;-1.092;2023-04-06T02:22:11;101739.41;;;8.82;100.00
9784;BME280;4931;44.874;-1.092;2023-04-06T02:24:36;101731.44;;;8.80;100.00
9784;BME280;4931;44.874;-1.092;2023-04-06T02:27:02;101724.66;;;8.83;100.00
9784;BME280;4931;44.874;-1.092;2023-04-06T02:29:27;101723.00;;;8.82;100.00
9784;BME280;4931;44.874;-1.092;2023-04-06T02:31:53;101717.53;;;8.82;100.00
9784;BME280;4931;44.874;-1.092;2023-04-06T02:34:18;101715.84;;;8.80;100.00
9784;BME280;4931;44.874;-1.092;2023-04-06T02:36:45;101716.44;;;8.83;100.00
9784;BME280;4931;44.874;-1.092;2023-04-06T02:39:11;101717.31;;;8.71;100.00
9784;BME280;4931;44.874;-1.092;2023-04-06T02:41:37;101718.03;;;8.67;100.00
9784;BME280;4931;44.874;-1.092;2023-04-06T02:44:03;101718.28;;;8.65;100.00
9784;BME280;4931;44.874;-1.092;2023-04-06T02:46:28;101708.34;;;8.59;100.00
9784;BME280;4931;44.874;-1.092;2023-04-06T02:48:54;101700.69;;;8.61;100.00
9784;BME280;4931;44.874;-1.092;2023-04-06T02:51:20;101689.75;;;8.61;100.00
9784;BME280;4931;44.874;-1.092;2023-04-06T02:53:45;101695.88;;;8.51;100.00
9784;BME280;4931;44.874;-1.092;2023-04-06T02:56:11;101682.22;;;8.39;100.00
9784;BME280;4931;44.874;-1.092;2023-04-06T02:58:37;101685.06;;;8.44;100.00
9784;BME280;4931;44.874;-1.092;2023-04-06T03:01:03;101689.31;;;8.40;100.00
9784;BME280;4931;44.874;-1.092;2023-04-06T03:03:28;101683.53;;;8.37;100.00
9784;BME280;4931;44.874;-1.092;2023-04-06T03:05:54;101695.19;;;8.32;100.00
9784;BME280;4931;44.874;-1.092;2023-04-06T03:08:21;101706.97;;;8.21;100.00
9784;BME280;4931;44.874;-1.092;2023-04-06T03:10:46;101707.22;;;8.07;100.00
9784;BME280;4931;44.874;-1.092;2023-04-06T03:13:12;101711.50;;;8.03;100.00
9784;BME280;4931;44.874;-1.092;2023-04-06T03:15:37;101716.41;;;8.01;100.00
9784;BME280;4931;44.874;-1.092;2023-04-06T03:18:03;101709.72;;;7.85;100.00
9784;BME280;4931;44.874;-1.092;2023-04-06T03:20:28;101710.81;;;7.72;100.00
9784;BME280;4931;44.874;-1.092;2023-04-06T03:22:54;101712.00;;;7.64;100.00
9784;BME280;4931;44.874;-1.092;2023-04-06T03:25:20;101708.91;;;7.61;100.00
9784;BME280;4931;44.874;-1.092;2023-04-06T03:27:45;101703.69;;;7.47;100.00
9784;BME280;4931;44.874;-1.092;2023-04-06T03:30:11;101699.97;;;7.42;100.00
9784;BME280;4931;44.874;-1.092;2023-04-06T03:32:37;101705.56;;;7.35;100.00
9784;BME280;4931;44.874;-1.092;2023-04-06T03:35:02;101705.28;;;7.25;100.00
9784;BME280;4931;44.874;-1.092;2023-04-06T03:37:28;101702.66;;;7.06;100.00
9784;BME280;4931;44.874;-1.092;2023-04-06T03:39:53;101704.19;;;7.02;100.00
9784;BME280;4931;44.874;-1.092;2023-04-06T03:42:19;101699.25;;;6.80;100.00
9784;BME280;4931;44.874;-1.092;2023-04-06T03:44:45;101700.28;;;6.68;100.00
9784;BME280;4931;44.874;-1.092;2023-04-06T03:47:10;101712.31;;;6.60;100.00
9784;BME280;4931;44.874;-1.092;2023-04-06T03:49:36;101722.75;;;6.63;100.00
9784;BME280;4931;44.874;-1.092;2023-04-06T03:52:01;101738.59;;;6.73;100.00
9784;BME280;4931;44.874;-1.092;2023-04-06T03:54:27;101744.88;;;6.73;100.00
9784;BME280;4931;44.874;-1.092;2023-04-06T03:56:53;101740.75;;;6.82;100.00
9784;BME280;4931;44.874;-1.092;2023-04-06T03:59:18;101740.91;;;6.88;100.00
9784;BME280;4931;44.874;-1.092;2023-04-06T04:01:44;101743.81;;;7.05;100.00
9784;BME280;4931;44.874;-1.092;2023-04-06T04:04:10;101760.09;;;7.11;100.00
9784;BME280;4931;44.874;-1.092;2023-04-06T04:06:35;101759.53;;;7.21;100.00
9784;BME280;4931;44.874;-1.092;2023-04-06T04:09:01;101754.41;;;7.25;100.00
9784;BME280;4931;44.874;-1.092;2023-04-06T04:11:27;101760.88;;;7.30;100.00
9784;BME280;4931;44.874;-1.092;2023-04-06T04:13:53;101768.19;;;7.30;100.00
9784;BME280;4931;44.874;-1.092;2023-04-06T04:16:18;101771.88;;;7.24;100.00
9784;BME280;4931;44.874;-1.092;2023-04-06T04:18:44;101779.97;;;7.30;100.00
9784;BME280;4931;44.874;-1.092;2023-04-06T04:21:12;101775.94;;;7.33;100.00
9784;BME280;4931;44.874;-1.092;2023-04-06T04:23:38;101782.47;;;7.32;100.00
9784;BME280;4931;44.874;-1.092;2023-04-06T04:26:03;101783.19;;;7.39;100.00
9784;BME280;4931;44.874;-1.092;2023-04-06T04:28:29;101775.22;;;7.38;100.00
9784;BME280;4931;44.874;-1.092;2023-04-06T04:30:55;101777.00;;;7.32;100.00
9784;BME280;4931;44.874;-1.092;2023-04-06T04:33:20;101779.38;;;7.40;100.00
9784;BME280;4931;44.874;-1.092;2023-04-06T04:35:46;101785.72;;;7.53;100.00
9784;BME280;4931;44.874;-1.092;2023-04-06T04:38:11;101779.09;;;7.60;100.00
9784;BME280;4931;44.874;-1.092;2023-04-06T04:40:36;101779.78;;;7.56;100.00
9784;BME280;4931;44.874;-1.092;2023-04-06T04:43:02;101783.72;;;7.60;100.00
9784;BME280;4931;44.874;-1.092;2023-04-06T04:45:27;101787.88;;;7.62;100.00
9784;BME280;4931;44.874;-1.092;2023-04-06T04:47:53;101782.41;;;7.62;100.00
9784;BME280;4931;44.874;-1.092;2023-04-06T04:50:19;101793.69;;;7.66;100.00
9784;BME280;4931;44.874;-1.092;2023-04-06T04:52:44;101790.72;;;7.68;100.00
9784;BME280;4931;44.874;-1.092;2023-04-06T04:55:10;101792.78;;;7.72;100.00
9784;BME280;4931;44.874;-1.092;2023-04-06T04:57:35;101795.13;;;7.69;100.00
9784;BME280;4931;44.874;-1.092;2023-04-06T05:00:01;101793.84;;;7.71;100.00
9784;BME280;4931;44.874;-1.092;2023-04-06T05:02:27;101781.94;;;7.65;100.00
9784;BME280;4931;44.874;-1.092;2023-04-06T05:04:53;101767.81;;;7.69;100.00
9784;BME280;4931;44.874;-1.092;2023-04-06T05:07:18;101762.34;;;7.69;100.00
9784;BME280;4931;44.874;-1.092;2023-04-06T05:09:45;101755.84;;;7.70;100.00
9784;BME280;4931;44.874;-1.092;2023-04-06T05:12:11;101754.16;;;7.69;100.00
9784;BME280;4931;44.874;-1.092;2023-04-06T05:14:37;101750.81;;;7.67;100.00
9784;BME280;4931;44.874;-1.092;2023-04-06T05:17:02;101769.69;;;7.68;100.00
9784;BME280;4931;44.874;-1.092;2023-04-06T05:19:28;101771.50;;;7.74;100.00
9784;BME280;4931;44.874;-1.092;2023-04-06T05:21:53;101775.41;;;7.78;100.00
9784;BME280;4931;44.874;-1.092;2023-04-06T05:24:19;101772.00;;;7.83;100.00
9784;BME280;4931;44.874;-1.092;2023-04-06T05:26:44;101764.84;;;7.82;100.00
9784;BME280;4931;44.874;-1.092;2023-04-06T05:29:10;101774.97;;;7.81;100.00
9784;BME280;4931;44.874;-1.092;2023-04-06T05:31:36;101778.28;;;7.84;100.00
9784;BME280;4931;44.874;-1.092;2023-04-06T05:34:01;101774.47;;;7.85;100.00
9784;BME280;4931;44.874;-1.092;2023-04-06T05:36:30;101777.22;;;7.85;100.00
9784;BME280;4931;44.874;-1.092;2023-04-06T05:38:57;101779.13;;;7.84;100.00
9784;BME280;4931;44.874;-1.092;2023-04-06T05:41:23;101779.94;;;7.85;100.00
9784;BME280;4931;44.874;-1.092;2023-04-06T05:43:49;101782.91;;;7.83;100.00
9784;BME280;4931;44.874;-1.092;2023-04-06T05:46:15;101798.00;;;7.86;100.00
9784;BME280;4931;44.874;-1.092;2023-04-06T05:48:40;101811.06;;;7.84;100.00
9784;BME280;4931;44.874;-1.092;2023-04-06T05:51:06;101814.28;;;7.80;100.00
9784;BME280;4931;44.874;-1.092;2023-04-06T05:53:32;101814.03;;;7.82;100.00
9784;BME280;4931;44.874;-1.092;2023-04-06T05:56:01;101817.56;;;7.82;100.00
9784;BME280;4931;44.874;-1.092;2023-04-06T05:58:28;101822.81;;;7.72;100.00
9784;BME280;4931;44.874;-1.092;2023-04-06T06:01:00;101819.97;;;7.79;100.00
9784;BME280;4931;44.874;-1.092;2023-04-06T06:03:26;101822.69;;;7.79;100.00
9784;BME280;4931;44.874;-1.092;2023-04-06T06:05:51;101828.16;;;7.79;100.00
9784;BME280;4931;44.874;-1.092;2023-04-06T06:08:17;101824.13;;;7.81;100.00
9784;BME280;4931;44.874;-1.092;2023-04-06T06:10:42;101838.00;;;7.80;100.00
9784;BME280;4931;44.874;-1.092;2023-04-06T06:13:08;101843.56;;;7.73;100.00
9784;BME280;4931;44.874;-1.092;2023-04-06T06:15:34;101847.41;;;7.72;100.00
9784;BME280;4931;44.874;-1.092;2023-04-06T06:18:00;101848.09;;;7.79;100.00
9784;BME280;4931;44.874;-1.092;2023-04-06T06:20:27;101850.97;;;7.85;100.00
9784;BME280;4931;44.874;-1.092;2023-04-06T06:22:52;101847.06;;;7.92;100.00
9784;BME280;4931;44.874;-1.092;2023-04-06T06:25:18;101853.34;;;7.93;100.00
9784;BME280;4931;44.874;-1.092;2023-04-06T06:27:43;101851.22;;;7.95;100.00
9784;BME280;4931;44.874;-1.092;2023-04-06T06:30:09;101851.00;;;7.96;100.00
9784;BME280;4931;44.874;-1.092;2023-04-06T06:32:35;101855.75;;;8.01;100.00
9784;BME280;4931;44.874;-1.092;2023-04-06T06:35:00;101838.06;;;8.04;100.00
9784;BME280;4931;44.874;-1.092;2023-04-06T06:37:26;101847.69;;;8.30;100.00
9784;BME280;4931;44.874;-1.092;2023-04-06T06:39:51;101844.47;;;8.21;100.00
9784;BME280;4931;44.874;-1.092;2023-04-06T06:42:17;101849.47;;;8.24;100.00
9784;BME280;4931;44.874;-1.092;2023-04-06T06:44:42;101840.56;;;8.29;100.00
9784;BME280;4931;44.874;-1.092;2023-04-06T06:47:08;101860.16;;;8.38;100.00
9784;BME280;4931;44.874;-1.092;2023-04-06T06:49:33;101861.72;;;8.45;100.00
9784;BME280;4931;44.874;-1.092;2023-04-06T06:51:59;101859.22;;;8.56;100.00
9784;BME280;4931;44.874;-1.092;2023-04-06T06:54:24;101849.47;;;8.60;100.00
9784;BME280;4931;44.874;-1.092;2023-04-06T06:56:50;101855.53;;;8.62;100.00
9784;BME280;4931;44.874;-1.092;2023-04-06T06:59:15;101844.97;;;8.66;100.00
9784;BME280;4931;44.874;-1.092;2023-04-06T07:01:41;101843.66;;;8.68;100.00
9784;BME280;4931;44.874;-1.092;2023-04-06T07:04:07;101848.63;;;8.71;100.00
9784;BME280;4931;44.874;-1.092;2023-04-06T07:06:35;101846.41;;;8.56;100.00
9784;BME280;4931;44.874;-1.092;2023-04-06T07:09:01;101845.41;;;8.74;100.00
9784;BME280;4931;44.874;-1.092;2023-04-06T07:11:29;101844.34;;;8.75;100.00
9784;BME280;4931;44.874;-1.092;2023-04-06T07:13:54;101852.50;;;8.87;100.00
9784;BME280;4931;44.874;-1.092;2023-04-06T07:16:20;101845.03;;;8.83;100.00
9784;BME280;4931;44.874;-1.092;2023-04-06T07:18:46;101852.75;;;8.86;100.00
9784;BME280;4931;44.874;-1.092;2023-04-06T07:21:11;101843.59;;;8.92;100.00
9784;BME280;4931;44.874;-1.092;2023-04-06T07:23:37;101848.06;;;8.98;100.00
9784;BME280;4931;44.874;-1.092;2023-04-06T07:26:02;101843.81;;;9.02;100.00
9784;BME280;4931;44.874;-1.092;2023-04-06T07:28:28;101849.97;;;9.09;100.00
9784;BME280;4931;44.874;-1.092;2023-04-06T07:30:54;101851.22;;;9.19;100.00
9784;BME280;4931;44.874;-1.092;2023-04-06T07:33:20;101853.19;;;9.35;100.00
9784;BME280;4931;44.874;-1.092;2023-04-06T07:35:45;101855.72;;;9.54;100.00
9784;BME280;4931;44.874;-1.092;2023-04-06T07:38:11;101855.16;;;9.69;100.00
9784;BME280;4931;44.874;-1.092;2023-04-06T07:40:36;101857.09;;;10.02;100.00
9784;BME280;4931;44.874;-1.092;2023-04-06T07:43:02;101862.84;;;10.74;100.00
9784;BME280;4931;44.874;-1.092;2023-04-06T07:45:28;101867.44;;;11.12;100.00
9784;BME280;4931;44.874;-1.092;2023-04-06T07:47:53;101863.94;;;11.44;100.00
9784;BME280;4931;44.874;-1.092;2023-04-06T07:50:19;101857.44;;;11.51;100.00
9784;BME280;4931;44.874;-1.092;2023-04-06T07:52:45;101846.75;;;11.87;100.00
9784;BME280;4931;44.874;-1.092;2023-04-06T07:55:10;101848.22;;;12.32;100.00
9784;BME280;4931;44.874;-1.092;2023-04-06T07:57:36;101840.94;;;12.58;100.00
9784;BME280;4931;44.874;-1.092;2023-04-06T08:00:02;101843.81;;;12.84;100.00
9784;BME280;4931;44.874;-1.092;2023-04-06T08:02:29;101836.47;;;13.10;100.00
9784;BME280;4931;44.874;-1.092;2023-04-06T08:04:55;101832.66;;;13.27;100.00
9784;BME280;4931;44.874;-1.092;2023-04-06T08:07:20;101833.56;;;13.53;100.00
9784;BME280;4931;44.874;-1.092;2023-04-06T08:09:46;101826.72;;;13.82;100.00
9784;BME280;4931;44.874;-1.092;2023-04-06T08:12:11;101817.03;;;13.94;100.00
9784;BME280;4931;44.874;-1.092;2023-04-06T08:14:37;101810.94;;;14.23;100.00
9784;BME280;4931;44.874;-1.092;2023-04-06T08:17:02;101812.69;;;14.85;100.00
9784;BME280;4931;44.874;-1.092;2023-04-06T08:19:28;101814.41;;;14.70;100.00
9784;BME280;4931;44.874;-1.092;2023-04-06T08:21:53;101816.00;;;14.87;100.00
9784;BME280;4931;44.874;-1.092;2023-04-06T08:24:19;101826.94;;;15.07;100.00
9784;BME280;4931;44.874;-1.092;2023-04-06T08:26:44;101804.66;;;15.38;100.00
9784;BME280;4931;44.874;-1.092;2023-04-06T08:29:10;101825.09;;;15.42;100.00
9784;BME280;4931;44.874;-1.092;2023-04-06T08:31:36;101823.25;;;15.67;100.00
9784;BME280;4931;44.874;-1.092;2023-04-06T08:34:03;101833.06;;;15.89;100.00
9784;BME280;4931;44.874;-1.092;2023-04-06T08:36:29;101838.88;;;16.22;100.00
9784;BME280;4931;44.874;-1.092;2023-04-06T08:38:55;101836.31;;;16.25;100.00
9784;BME280;4931;44.874;-1.092;2023-04-06T08:41:20;101833.31;;;16.22;100.00
9784;BME280;4931;44.874;-1.092;2023-04-06T08:43:54;101840.59;;;16.13;100.00
9784;BME280;4931;44.874;-1.092;2023-04-06T08:46:21;101845.59;;;16.64;100.00
9784;BME280;4931;44.874;-1.092;2023-04-06T08:48:47;101842.66;;;16.55;100.00
9784;BME280;4931;44.874;-1.092;2023-04-06T08:51:15;101835.59;;;16.68;100.00
9784;BME280;4931;44.874;-1.092;2023-04-06T08:53:42;101836.16;;;16.89;100.00
9784;BME280;4931;44.874;-1.092;2023-04-06T08:56:09;101835.00;;;17.15;100.00
9784;BME280;4931;44.874;-1.092;2023-04-06T08:58:37;101837.78;;;17.15;100.00
9784;BME280;4931;44.874;-1.092;2023-04-06T09:01:07;101840.97;;;17.27;100.00
9784;BME280;4931;44.874;-1.092;2023-04-06T09:03:37;101846.09;;;16.96;100.00
9784;BME280;4931;44.874;-1.092;2023-04-06T09:06:04;101847.84;;;16.86;100.00
9784;BME280;4931;44.874;-1.092;2023-04-06T09:08:30;101836.91;;;17.19;100.00
9784;BME280;4931;44.874;-1.092;2023-04-06T09:10:55;101845.69;;;17.46;100.00
9784;BME280;4931;44.874;-1.092;2023-04-06T09:13:21;101842.09;;;17.97;100.00
9784;BME280;4931;44.874;-1.092;2023-04-06T09:15:46;101842.00;;;18.02;98.51
9784;BME280;4931;44.874;-1.092;2023-04-06T09:18:12;101850.41;;;18.30;100.00
9784;BME280;4931;44.874;-1.092;2023-04-06T09:20:37;101848.16;;;18.32;90.20
9784;BME280;4931;44.874;-1.092;2023-04-06T09:23:03;101841.78;;;18.46;93.05
9784;BME280;4931;44.874;-1.092;2023-04-06T09:25:28;101849.59;;;18.44;84.74
9784;BME280;4931;44.874;-1.092;2023-04-06T09:28:03;101860.50;;;18.54;87.68
9784;BME280;4931;44.874;-1.092;2023-04-06T09:30:29;101859.09;;;18.70;90.96
9784;BME280;4931;44.874;-1.092;2023-04-06T09:32:57;101853.72;;;18.60;91.90
9784;BME280;4931;44.874;-1.092;2023-04-06T09:35:23;101854.75;;;18.64;90.98
9784;BME280;4931;44.874;-1.092;2023-04-06T09:37:50;101856.00;;;19.14;94.12
9784;BME280;4931;44.874;-1.092;2023-04-06T09:40:17;101847.16;;;19.34;82.61
9784;BME280;4931;44.874;-1.092;2023-04-06T09:42:47;101849.56;;;19.27;80.94
9784;BME280;4931;44.874;-1.092;2023-04-06T09:45:13;101857.81;;;19.32;77.13
9784;BME280;4931;44.874;-1.092;2023-04-06T09:47:42;101860.59;;;19.32;73.15
9784;BME280;4931;44.874;-1.092;2023-04-06T09:50:11;101858.44;;;19.29;68.61
9784;BME280;4931;44.874;-1.092;2023-04-06T09:52:48;101862.38;;;19.14;70.60
9784;BME280;4931;44.874;-1.092;2023-04-06T09:55:23;101858.34;;;19.57;68.62
9784;BME280;4931;44.874;-1.092;2023-04-06T09:57:55;101862.50;;;19.68;62.06
9784;BME280;4931;44.874;-1.092;2023-04-06T10:00:23;101862.41;;;19.73;52.95
9784;BME280;4931;44.874;-1.092;2023-04-06T10:03:07;101871.59;;;19.97;46.09
9784;BME280;4931;44.874;-1.092;2023-04-06T10:05:46;101864.19;;;19.92;38.03
9784;BME280;4931;44.874;-1.092;2023-04-06T10:08:17;101864.69;;;19.71;34.70
9784;BME280;4931;44.874;-1.092;2023-04-06T10:10:44;101869.84;;;19.64;33.21
9784;BME280;4931;44.874;-1.092;2023-04-06T10:13:11;101865.28;;;19.68;32.00
9784;BME280;4931;44.874;-1.092;2023-04-06T10:15:37;101863.19;;;19.88;30.72
9784;BME280;4931;44.874;-1.092;2023-04-06T10:18:03;101858.31;;;20.16;28.13
9784;BME280;4931;44.874;-1.092;2023-04-06T10:25:30;101860.47;;;19.97;27.98
9784;BME280;4931;44.874;-1.092;2023-04-06T10:28:08;101859.94;;;20.17;29.42
9784;BME280;4931;44.874;-1.092;2023-04-06T10:30:35;101858.34;;;19.80;30.02
9784;BME280;4931;44.874;-1.092;2023-04-06T10:33:32;101850.81;;;19.57;32.76
9784;BME280;4931;44.874;-1.092;2023-04-06T10:36:10;101850.34;;;19.41;32.35
9784;BME280;4931;44.874;-1.092;2023-04-06T10:38:37;101849.53;;;19.41;32.93
9784;BME280;4931;44.874;-1.092;2023-04-06T10:41:04;101843.31;;;20.03;35.05
9784;BME280;4931;44.874;-1.092;2023-04-06T10:43:33;101842.03;;;20.10;31.70
9784;BME280;4931;44.874;-1.092;2023-04-06T10:46:01;101850.72;;;20.39;32.58
9784;BME280;4931;44.874;-1.092;2023-04-06T10:48:41;101855.53;;;19.94;29.20
9784;BME280;4931;44.874;-1.092;2023-04-06T10:51:09;101857.72;;;20.28;32.20
9784;BME280;4931;44.874;-1.092;2023-04-06T10:53:35;101863.41;;;20.23;29.76
9784;BME280;4931;44.874;-1.092;2023-04-06T10:56:02;101864.06;;;20.20;31.87
9784;BME280;4931;44.874;-1.092;2023-04-06T10:58:28;101867.31;;;20.85;31.22
9784;BME280;4931;44.874;-1.092;2023-04-06T11:00:54;101854.69;;;20.87;30.04
9784;BME280;4931;44.874;-1.092;2023-04-06T11:03:20;101863.09;;;20.96;29.02
9784;BME280;4931;44.874;-1.092;2023-04-06T11:05:48;101869.34;;;21.19;29.28
9784;BME280;4931;44.874;-1.092;2023-04-06T11:08:31;101863.34;;;21.52;29.97
9784;BME280;4931;44.874;-1.092;2023-04-06T11:11:10;101870.34;;;21.15;28.50
9784;BME280;4931;44.874;-1.092;2023-04-06T11:13:51;101876.44;;;21.52;30.02
9784;BME280;4931;44.874;-1.092;2023-04-06T11:16:25;101876.09;;;21.27;29.04
9784;BME280;4931;44.874;-1.092;2023-04-06T11:18:56;101882.66;;;21.22;32.71
9784;BME280;4931;44.874;-1.092;2023-04-06T11:24:21;101880.22;;;21.21;31.67
9784;BME280;4931;44.874;-1.092;2023-04-06T11:26:54;101883.66;;;21.27;30.43
9784;BME280;4931;44.874;-1.092;2023-04-06T11:29:22;101887.44;;;21.39;31.13
9784;BME280;4931;44.874;-1.092;2023-04-06T11:32:10;101887.34;;;20.96;29.86
9784;BME280;4931;44.874;-1.092;2023-04-06T11:34:36;101889.38;;;21.04;30.71
9784;BME280;4931;44.874;-1.092;2023-04-06T11:37:07;101889.03;;;21.05;29.68
9784;BME280;4931;44.874;-1.092;2023-04-06T11:39:39;101889.16;;;20.60;29.06
9784;BME280;4931;44.874;-1.092;2023-04-06T11:42:06;101890.47;;;20.54;30.32
9784;BME280;4931;44.874;-1.092;2023-04-06T11:47:09;101882.59;;;20.56;33.24
9784;BME280;4931;44.874;-1.092;2023-04-06T11:49:44;101888.59;;;20.72;31.83
9784;BME280;4931;44.874;-1.092;2023-04-06T11:52:28;101882.31;;;21.06;31.39
9784;BME280;4931;44.874;-1.092;2023-04-06T11:54:55;101882.47;;;21.01;30.54
9784;BME280;4931;44.874;-1.092;2023-04-06T11:57:23;101879.75;;;20.70;27.92
9784;BME280;4931;44.874;-1.092;2023-04-06T11:59:53;101883.97;;;20.67;28.45
9784;BME280;4931;44.874;-1.092;2023-04-06T12:02:18;101883.03;;;20.18;27.06
9784;BME280;4931;44.874;-1.092;2023-04-06T12:04:44;101877.56;;;20.35;26.14
9784;BME280;4931;44.874;-1.092;2023-04-06T12:07:10;101876.06;;;21.10;29.40
9784;BME280;4931;44.874;-1.092;2023-04-06T12:09:35;101873.06;;;20.88;31.67
9784;BME280;4931;44.874;-1.092;2023-04-06T12:12:02;101871.13;;;20.98;31.07
9784;BME280;4931;44.874;-1.092;2023-04-06T12:14:28;101865.25;;;21.17;30.46
9784;BME280;4931;44.874;-1.092;2023-04-06T12:16:56;101864.09;;;21.09;27.32
9784;BME280;4931;44.874;-1.092;2023-04-06T12:19:22;101872.69;;;21.48;27.83
9784;BME280;4931;44.874;-1.092;2023-04-06T12:21:51;101865.75;;;21.36;23.03
9784;BME280;4931;44.874;-1.092;2023-04-06T12:24:17;101861.47;;;21.13;23.22
9784;BME280;4931;44.874;-1.092;2023-04-06T12:26:42;101863.13;;;21.31;28.25
9784;BME280;4931;44.874;-1.092;2023-04-06T12:29:08;101859.59;;;20.90;26.72
9784;BME280;4931;44.874;-1.092;2023-04-06T12:31:37;101858.22;;;21.28;29.40
9784;BME280;4931;44.874;-1.092;2023-04-06T12:34:11;101865.13;;;21.39;31.70
9784;BME280;4931;44.874;-1.092;2023-04-06T12:36:37;101861.34;;;21.27;27.88
9784;BME280;4931;44.874;-1.092;2023-04-06T12:39:05;101852.81;;;21.49;28.83
9784;BME280;4931;44.874;-1.092;2023-04-06T12:41:31;101858.44;;;20.74;28.12
9784;BME280;4931;44.874;-1.092;2023-04-06T12:43:57;101843.56;;;21.05;27.03
9784;BME280;4931;44.874;-1.092;2023-04-06T12:46:24;101839.13;;;20.95;28.09
9784;BME280;4931;44.874;-1.092;2023-04-06T12:48:51;101833.59;;;21.30;26.09
9784;BME280;4931;44.874;-1.092;2023-04-06T12:51:18;101827.84;;;21.27;24.51
9784;BME280;4931;44.874;-1.092;2023-04-06T12:53:45;101830.16;;;21.42;25.62
9784;BME280;4931;44.874;-1.092;2023-04-06T12:56:15;101831.13;;;21.37;28.78
9784;BME280;4931;44.874;-1.092;2023-04-06T12:58:42;101822.91;;;21.32;28.90
9784;BME280;4931;44.874;-1.092;2023-04-06T13:01:08;101832.44;;;21.14;30.76
9784;BME280;4931;44.874;-1.092;2023-04-06T13:03:34;101841.06;;;20.86;31.32
9784;BME280;4931;44.874;-1.092;2023-04-06T13:06:00;101837.16;;;20.87;31.20
9784;BME280;4931;44.874;-1.092;2023-04-06T13:08:26;101834.28;;;20.69;30.56